Time;durP1;ratioP1;P1;durP2;ratioP2;P2;SDS_P1;SDS_P2;PMS_P1;PMS_P2;Temp;Humidity;BMP_temperature;BMP_pressure;BME280_temperature;BME280_humidity;BME280_pressure;Samples;Min_cycle;Max_cycle;Signal;HPM_P1;HPM_P2
2022/04/22 00:00:19;;;;;;;9.68;4.28;;;11.90;98.50;;;;;;5020409;28;20467;-52
2022/04/22 00:02:45;;;;;;;7.40;4.70;;;11.70;99.10;;;;;;5024219;28;20037;-52
2022/04/22 00:05:11;;;;;;;7.20;4.55;;;11.70;99.40;;;;;;5021623;28;20064;-50
2022/04/22 00:07:36;;;;;;;10.00;4.90;;;11.60;99.70;;;;;;5021448;28;20046;-52
2022/04/22 00:10:05;;;;;;;9.57;5.32;;;11.60;99.80;;;;;;5023327;28;20053;-48
2022/04/22 00:12:30;;;;;;;13.65;5.75;;;11.50;99.90;;;;;;5026481;28;20075;-49
2022/04/22 00:14:56;;;;;;;6.97;4.95;;;11.50;99.90;;;;;;5031081;28;20065;-51
2022/04/22 00:17:22;;;;;;;9.82;5.07;;;11.40;99.90;;;;;;5016135;28;20038;-50
2022/04/22 00:19:47;;;;;;;11.35;6.20;;;11.40;99.90;;;;;;5022707;28;20040;-50
2022/04/22 00:22:13;;;;;;;10.25;5.47;;;11.30;99.90;;;;;;5023723;28;20037;-51
2022/04/22 00:24:39;;;;;;;11.27;6.78;;;11.40;99.90;;;;;;5025110;28;20112;-48
2022/04/22 00:27:04;;;;;;;11.95;6.32;;;11.30;99.90;;;;;;5022769;28;20045;-50
2022/04/22 00:29:30;;;;;;;12.95;6.85;;;11.30;99.90;;;;;;5025144;28;20034;-51
2022/04/22 00:31:55;;;;;;;12.52;6.40;;;11.30;99.90;;;;;;5027422;28;20045;-52
2022/04/22 00:34:21;;;;;;;15.23;7.22;;;11.20;99.90;;;;;;5042419;22;20049;-53
2022/04/22 00:36:46;;;;;;;15.88;7.50;;;11.10;99.90;;;;;;5064921;28;20452;-52
2022/04/22 00:39:12;;;;;;;13.57;7.28;;;11.10;99.90;;;;;;5042605;28;20506;-50
2022/04/22 00:41:37;;;;;;;13.20;8.40;;;11.20;99.90;;;;;;5053649;28;20394;-50
2022/04/22 00:44:04;;;;;;;15.85;7.57;;;11.10;99.90;;;;;;5044378;28;20030;-50
2022/04/22 00:46:29;;;;;;;16.02;8.05;;;10.90;99.90;;;;;;5057191;28;20082;-53
2022/04/22 00:48:55;;;;;;;14.75;7.90;;;10.90;99.90;;;;;;5045379;28;20052;-52
2022/04/22 00:51:22;;;;;;;12.40;7.70;;;10.90;99.90;;;;;;5050690;28;20097;-54
2022/04/22 00:53:49;;;;;;;16.58;6.88;;;11.00;99.90;;;;;;5042599;28;20041;-54
2022/04/22 00:56:16;;;;;;;14.52;7.63;;;11.00;99.90;;;;;;5049760;28;20482;-52
2022/04/22 00:58:45;;;;;;;18.25;8.35;;;11.10;99.90;;;;;;5042453;28;20041;-54
2022/04/22 01:01:11;;;;;;;13.38;7.90;;;11.00;99.90;;;;;;5050904;28;20418;-50
2022/04/22 01:03:38;;;;;;;13.27;7.88;;;10.90;99.90;;;;;;5054571;28;20103;-50
2022/04/22 01:11:35;;;;;;;15.43;6.90;;;10.80;99.90;;;;;;5056905;28;20497;-50
2022/04/22 01:14:06;;;;;;;15.48;8.10;;;10.80;99.90;;;;;;5052491;28;20048;-53
2022/04/22 01:16:32;;;;;;;16.95;8.05;;;10.70;99.90;;;;;;5054550;28;20186;-51
2022/04/22 01:18:58;;;;;;;12.70;6.95;;;10.80;99.90;;;;;;5039949;28;20117;-50
2022/04/22 01:21:23;;;;;;;12.40;7.53;;;10.80;99.90;;;;;;5038581;28;20033;-54
2022/04/22 01:23:49;;;;;;;16.65;8.77;;;10.70;99.90;;;;;;5037355;28;20025;-50
2022/04/22 01:26:15;;;;;;;17.95;8.65;;;10.70;99.90;;;;;;5052128;28;20530;-51
2022/04/22 01:28:41;;;;;;;15.27;9.20;;;10.60;99.90;;;;;;5033974;28;20045;-54
2022/04/22 01:31:07;;;;;;;16.25;9.38;;;10.50;99.90;;;;;;5047876;28;20394;-51
2022/04/22 01:33:33;;;;;;;16.08;8.70;;;10.60;99.90;;;;;;5056111;28;20045;-52
2022/04/22 01:35:59;;;;;;;13.85;9.30;;;10.60;99.90;;;;;;5048010;28;20055;-50
2022/04/22 01:38:25;;;;;;;14.63;8.00;;;10.50;99.90;;;;;;5051418;28;20041;-53
2022/04/22 01:40:51;;;;;;;16.08;9.02;;;10.60;99.90;;;;;;5034098;28;20037;-53
2022/04/22 01:43:17;;;;;;;19.45;10.10;;;10.50;99.90;;;;;;5033750;28;20115;-50
2022/04/22 01:45:43;;;;;;;17.60;9.63;;;10.50;99.90;;;;;;5047089;28;20033;-54
2022/04/22 01:48:09;;;;;;;19.73;9.20;;;10.40;99.90;;;;;;5052535;28;20052;-54
2022/04/22 01:50:34;;;;;;;17.65;10.40;;;10.50;99.90;;;;;;5053688;28;20041;-50
2022/04/22 01:53:00;;;;;;;19.67;9.20;;;10.50;99.90;;;;;;5048559;28;20081;-54
2022/04/22 01:55:29;;;;;;;19.75;10.75;;;10.30;99.90;;;;;;5052048;28;20041;-53
2022/04/22 01:57:54;;;;;;;23.25;10.85;;;10.30;99.90;;;;;;5042695;28;20503;-50
2022/04/22 02:00:20;;;;;;;20.15;10.10;;;10.20;99.90;;;;;;5049739;28;20085;-51
2022/04/22 02:02:46;;;;;;;19.65;10.30;;;10.20;99.90;;;;;;5033881;28;20438;-51
2022/04/22 02:05:12;;;;;;;23.10;11.75;;;10.30;99.90;;;;;;5051972;28;20037;-51
2022/04/22 02:07:41;;;;;;;21.30;10.30;;;10.30;99.90;;;;;;5046496;28;20049;-54
2022/04/22 02:10:08;;;;;;;19.30;11.00;;;10.10;99.90;;;;;;5052293;28;20045;-54
2022/04/22 02:12:33;;;;;;;23.88;12.05;;;10.20;99.90;;;;;;5049682;28;20046;-50
2022/04/22 02:14:59;;;;;;;21.73;12.15;;;10.10;99.90;;;;;;5055953;28;20044;-50
2022/04/22 02:17:25;;;;;;;22.30;12.52;;;10.00;99.90;;;;;;5056447;28;20482;-54
2022/04/22 02:19:51;;;;;;;36.85;13.10;;;9.90;99.90;;;;;;5044618;28;20156;-50
2022/04/22 02:22:16;;;;;;;22.50;13.02;;;10.00;99.90;;;;;;5033429;28;20106;-50
2022/04/22 02:24:42;;;;;;;25.77;12.80;;;10.00;99.90;;;;;;5033110;28;20448;-51
2022/04/22 02:30:12;;;;;;;26.38;13.35;;;9.80;99.90;;;;;;4976735;28;20061;-50
2022/04/22 02:32:37;;;;;;;21.92;12.70;;;9.80;99.90;;;;;;4983409;28;20078;-50
2022/04/22 02:35:03;;;;;;;22.42;12.85;;;9.90;99.90;;;;;;5019876;28;20080;-52
2022/04/22 02:37:28;;;;;;;23.90;13.20;;;9.80;99.90;;;;;;5047383;28;20042;-50
2022/04/22 02:39:54;;;;;;;21.92;12.88;;;9.70;99.90;;;;;;5049770;28;20073;-54
2022/04/22 02:47:48;;;;;;;24.27;13.35;;;9.70;99.90;;;;;;5053528;28;20087;-52
2022/04/22 02:50:14;;;;;;;25.35;13.05;;;9.70;99.90;;;;;;5033288;28;20081;-53
2022/04/22 02:52:39;;;;;;;24.65;12.57;;;9.60;99.90;;;;;;5032854;28;20449;-54
2022/04/22 02:55:05;;;;;;;24.95;12.90;;;9.50;99.90;;;;;;5032795;28;20052;-50
2022/04/22 02:57:31;;;;;;;24.35;12.95;;;9.50;99.90;;;;;;5037305;28;20045;-50
2022/04/22 02:59:57;;;;;;;24.20;13.45;;;9.50;99.90;;;;;;5044199;28;20120;-51
2022/04/22 03:02:22;;;;;;;29.15;13.30;;;9.40;99.90;;;;;;5052085;28;20036;-51
2022/04/22 03:04:48;;;;;;;21.38;12.13;;;9.30;99.90;;;;;;5038595;28;20044;-50
2022/04/22 03:07:13;;;;;;;23.60;12.25;;;9.30;99.90;;;;;;5047357;28;20098;-52
2022/04/22 03:09:39;;;;;;;21.33;12.20;;;9.40;99.90;;;;;;5056813;28;20036;-50
2022/04/22 03:12:05;;;;;;;25.58;12.32;;;9.40;99.90;;;;;;5052390;28;20393;-51
2022/04/22 03:14:30;;;;;;;23.23;11.65;;;9.40;99.90;;;;;;5058290;28;20452;-50
2022/04/22 03:16:56;;;;;;;20.80;11.75;;;9.50;99.90;;;;;;5054028;28;20041;-50
2022/04/22 03:19:22;;;;;;;22.52;10.32;;;9.40;99.90;;;;;;5043493;28;20041;-50
2022/04/22 03:21:47;;;;;;;20.27;10.25;;;9.40;99.90;;;;;;5038153;28;20514;-53
2022/04/22 03:24:13;;;;;;;24.50;12.20;;;9.30;99.90;;;;;;5032137;28;20392;-50
2022/04/22 03:26:39;;;;;;;20.05;11.63;;;9.30;99.90;;;;;;5038067;28;20224;-50
2022/04/22 03:29:04;;;;;;;22.77;12.23;;;9.20;99.90;;;;;;5045824;28;20123;-50
2022/04/22 03:31:30;;;;;;;21.17;11.82;;;9.20;99.90;;;;;;5051934;28;20529;-50
2022/04/22 03:33:55;;;;;;;23.23;12.73;;;9.20;99.90;;;;;;5043239;28;20072;-51
2022/04/22 03:36:21;;;;;;;22.45;12.02;;;9.20;99.90;;;;;;5055373;28;20032;-50
2022/04/22 03:38:46;;;;;;;28.30;12.77;;;9.10;99.90;;;;;;5061079;28;20044;-50
2022/04/22 03:41:12;;;;;;;25.08;12.00;;;9.00;99.90;;;;;;5049421;28;20099;-52
2022/04/22 03:43:40;;;;;;;18.80;10.77;;;9.00;99.90;;;;;;5031747;28;20065;-50
2022/04/22 03:46:05;;;;;;;20.10;11.20;;;8.90;99.90;;;;;;5032264;28;20042;-50
2022/04/22 03:48:31;;;;;;;21.52;11.98;;;9.00;99.90;;;;;;5045178;28;20122;-50
2022/04/22 03:50:56;;;;;;;21.20;10.73;;;9.00;99.90;;;;;;5051280;28;20044;-50
2022/04/22 03:53:22;;;;;;;20.52;11.63;;;8.90;99.90;;;;;;5051615;28;20128;-51
2022/04/22 03:55:47;;;;;;;19.52;10.05;;;8.90;99.90;;;;;;5037782;28;20044;-50
2022/04/22 03:58:16;;;;;;;22.88;11.40;;;8.80;99.90;;;;;;5040886;28;20037;-50
2022/04/22 04:00:48;;;;;;;20.75;11.40;;;8.80;99.90;;;;;;5051367;28;20037;-49
2022/04/22 04:03:15;;;;;;;20.48;8.95;;;8.80;99.90;;;;;;5050940;28;20079;-52
2022/04/22 04:05:46;;;;;;;20.88;10.30;;;8.80;99.90;;;;;;5061516;28;20935;-53
2022/04/22 04:08:11;;;;;;;24.25;11.10;;;8.70;99.90;;;;;;5056624;28;20044;-53
2022/04/22 04:16:06;;;;;;;14.20;8.95;;;8.60;99.90;;;;;;5053277;28;20041;-53
2022/04/22 04:18:34;;;;;;;13.75;8.98;;;8.70;99.90;;;;;;5047110;28;20384;-53
2022/04/22 04:23:46;;;;;;;17.75;9.73;;;8.50;99.90;;;;;;5056490;28;20103;-53
2022/04/22 04:26:12;;;;;;;17.58;9.52;;;8.50;99.90;;;;;;5048170;28;20041;-53
2022/04/22 04:28:38;;;;;;;16.30;8.30;;;8.40;99.90;;;;;;5046512;28;20047;-54
2022/04/22 04:31:06;;;;;;;17.95;9.65;;;8.40;99.90;;;;;;5053353;28;20049;-53
2022/04/22 04:33:32;;;;;;;16.05;9.10;;;8.40;99.90;;;;;;5054972;28;20049;-53
2022/04/22 04:35:58;;;;;;;16.25;7.43;;;8.40;99.90;;;;;;5055568;28;20410;-52
2022/04/22 04:38:25;;;;;;;18.25;9.90;;;8.30;99.90;;;;;;5045540;28;20052;-54
2022/04/22 04:40:51;;;;;;;17.38;7.95;;;8.30;99.90;;;;;;5046473;28;20041;-53
2022/04/22 04:43:17;;;;;;;21.02;8.88;;;8.20;99.90;;;;;;5050920;28;20490;-53
2022/04/22 04:45:44;;;;;;;15.18;8.00;;;8.20;99.90;;;;;;5045683;28;20037;-53
2022/04/22 04:48:10;;;;;;;15.23;8.52;;;8.30;99.90;;;;;;5041828;28;20042;-52
2022/04/22 04:50:35;;;;;;;16.02;7.70;;;8.30;99.90;;;;;;5050378;28;20098;-53
2022/04/22 04:53:01;;;;;;;12.38;7.93;;;8.20;99.90;;;;;;5051005;28;20494;-53
2022/04/22 04:55:26;;;;;;;15.38;7.70;;;8.20;99.90;;;;;;5052905;28;20037;-53
2022/04/22 04:57:52;;;;;;;13.45;7.57;;;8.30;99.90;;;;;;5034171;28;20150;-53
2022/04/22 05:00:18;;;;;;;16.35;7.75;;;8.30;99.90;;;;;;5033858;28;20038;-53
2022/04/22 05:02:45;;;;;;;13.18;7.75;;;8.30;99.90;;;;;;5034328;28;20099;-53
2022/04/22 05:05:12;;;;;;;14.50;6.63;;;8.30;99.90;;;;;;5045090;28;20041;-53
2022/04/22 05:07:51;;;;;;;15.88;7.55;;;8.30;99.90;;;;;;5046374;28;20494;-51
2022/04/22 05:10:18;;;;;;;13.63;6.57;;;8.30;99.90;;;;;;5051055;28;20542;-53
2022/04/22 05:12:47;;;;;;;14.15;6.13;;;8.40;99.90;;;;;;5051053;28;20033;-53
2022/04/22 05:15:14;;;;;;;11.82;6.32;;;8.50;99.90;;;;;;5054248;28;20479;-53
2022/04/22 05:17:43;;;;;;;12.05;6.75;;;8.50;99.90;;;;;;5046506;28;20041;-53
2022/04/22 05:20:11;;;;;;;12.82;7.18;;;8.50;99.90;;;;;;5045936;28;20117;-52
2022/04/22 05:22:36;;;;;;;13.65;6.55;;;8.40;99.90;;;;;;5054322;28;20041;-51
2022/04/22 05:25:04;;;;;;;16.88;6.82;;;8.40;99.90;;;;;;5056342;28;20234;-53
2022/04/22 05:27:30;;;;;;;14.48;6.53;;;8.30;99.90;;;;;;5047493;28;20045;-52
2022/04/22 05:32:42;;;;;;;15.60;6.80;;;8.40;99.90;;;;;;5054321;28;20565;-51
2022/04/22 05:35:09;;;;;;;14.82;6.25;;;8.40;99.90;;;;;;5059682;28;20036;-53
2022/04/22 05:37:48;;;;;;;10.88;5.88;;;8.30;99.90;;;;;;5044325;28;20522;-53
2022/04/22 05:40:17;;;;;;;16.10;6.93;;;8.40;99.90;;;;;;5034527;28;20060;-53
2022/04/22 05:42:43;;;;;;;13.95;6.38;;;8.40;99.90;;;;;;5047136;28;20037;-53
2022/04/22 05:45:10;;;;;;;10.48;5.90;;;8.50;99.90;;;;;;5048831;28;20068;-53
2022/04/22 05:47:36;;;;;;;13.60;5.95;;;8.50;99.90;;;;;;5048001;28;20040;-53
2022/04/22 05:50:04;;;;;;;10.85;5.18;;;8.60;99.90;;;;;;5042765;28;20045;-53
2022/04/22 05:52:31;;;;;;;11.02;6.03;;;8.70;99.90;;;;;;5044137;28;20178;-53
2022/04/22 05:54:58;;;;;;;11.90;5.90;;;8.90;99.90;;;;;;5045533;28;20060;-52
2022/04/22 05:57:23;;;;;;;11.70;5.15;;;9.10;99.90;;;;;;5051229;28;20040;-53
2022/04/22 05:59:49;;;;;;;12.20;5.43;;;9.30;99.90;;;;;;5055083;28;20039;-50
2022/04/22 06:02:17;;;;;;;10.55;5.40;;;9.40;99.90;;;;;;5055656;28;20040;-52
2022/04/22 06:04:43;;;;;;;11.23;4.65;;;9.50;99.90;;;;;;5053411;28;20044;-52
2022/04/22 06:07:08;;;;;;;10.65;5.50;;;9.40;99.90;;;;;;5056138;28;20040;-53
2022/04/22 06:12:18;;;;;;;15.90;5.82;;;9.20;99.90;;;;;;5042477;28;20524;-52
2022/04/22 06:14:46;;;;;;;9.70;5.15;;;9.10;99.90;;;;;;5057063;28;20120;-53
2022/04/22 06:17:13;;;;;;;13.00;6.00;;;9.00;99.90;;;;;;5051986;28;20194;-49
2022/04/22 06:19:38;;;;;;;10.77;5.15;;;9.00;99.90;;;;;;5045322;28;20033;-53
2022/04/22 06:22:04;;;;;;;11.50;5.75;;;9.00;99.90;;;;;;5053897;28;20063;-50
2022/04/22 06:24:30;;;;;;;10.93;5.68;;;9.00;99.90;;;;;;5053461;28;20037;-52
2022/04/22 06:26:56;;;;;;;10.43;5.57;;;9.00;99.90;;;;;;5054347;28;20405;-50
2022/04/22 06:29:22;;;;;;;10.23;5.15;;;9.00;99.90;;;;;;5051880;28;20047;-53
2022/04/22 06:31:47;;;;;;;12.88;5.10;;;9.10;99.90;;;;;;5045764;28;20052;-52
2022/04/22 06:34:13;;;;;;;10.90;5.97;;;9.20;99.90;;;;;;5091220;22;20044;-48
2022/04/22 06:36:39;;;;;;;10.35;5.20;;;9.20;99.90;;;;;;5047521;28;20084;-48
2022/04/22 06:39:05;;;;;;;7.72;3.60;;;9.30;99.90;;;;;;5052900;28;20049;-50
2022/04/22 06:46:59;;;;;;;11.63;4.85;;;9.80;99.90;;;;;;5043177;28;20063;-47
2022/04/22 06:49:25;;;;;;;13.38;5.25;;;9.90;99.90;;;;;;5031565;28;20491;-48
2022/04/22 06:51:51;;;;;;;10.07;5.30;;;10.00;99.90;;;;;;5039738;28;20033;-46
2022/04/22 06:54:17;;;;;;;10.40;5.28;;;10.00;99.90;;;;;;5044343;28;20116;-47
2022/04/22 06:56:44;;;;;;;8.18;5.40;;;10.10;99.90;;;;;;5051249;28;20575;-47
2022/04/22 06:59:09;;;;;;;9.50;5.50;;;10.10;99.90;;;;;;5052530;28;20111;-49
2022/04/22 07:01:36;;;;;;;10.60;5.55;;;10.20;99.90;;;;;;5040943;28;20045;-46
2022/04/22 07:04:02;;;;;;;7.68;4.22;;;10.30;99.90;;;;;;5041321;28;20050;-48
2022/04/22 07:06:28;;;;;;;8.80;3.80;;;10.40;99.90;;;;;;5041428;28;20049;-47
2022/04/22 07:08:54;;;;;;;11.98;6.13;;;10.40;99.90;;;;;;5050078;28;20060;-48
2022/04/22 07:11:28;;;;;;;12.63;5.20;;;10.40;99.90;;;;;;5044035;28;20120;-47
2022/04/22 07:13:55;;;;;;;11.13;4.88;;;10.50;99.90;;;;;;5038576;28;20042;-46
2022/04/22 07:16:20;;;;;;;11.35;4.35;;;10.50;99.90;;;;;;5041375;28;20037;-47
2022/04/22 07:18:47;;;;;;;7.57;4.63;;;10.50;99.90;;;;;;5038906;28;20047;-51
2022/04/22 07:21:13;;;;;;;10.45;4.85;;;10.60;99.90;;;;;;5040890;28;20088;-47
2022/04/22 07:23:39;;;;;;;11.60;5.32;;;10.60;99.90;;;;;;5038883;28;20466;-46
2022/04/22 07:26:09;;;;;;;8.05;5.30;;;10.70;99.90;;;;;;5043572;28;20069;-48
2022/04/22 07:28:34;;;;;;;10.15;5.35;;;10.70;99.90;;;;;;5041191;28;20509;-50
2022/04/22 07:31:01;;;;;;;9.13;5.18;;;10.80;99.90;;;;;;5039704;28;20037;-48
2022/04/22 07:33:27;;;;;;;9.55;4.75;;;10.80;99.90;;;;;;5040848;28;20037;-47
2022/04/22 07:35:53;;;;;;;8.77;3.70;;;11.00;99.30;;;;;;5038112;28;20033;-48
2022/04/22 07:38:19;;;;;;;10.15;4.85;;;11.10;98.10;;;;;;5040532;28;20037;-48
2022/04/22 07:40:50;;;;;;;8.55;5.03;;;11.10;98.10;;;;;;5041996;28;20038;-49
2022/04/22 07:48:46;;;;;;;7.78;4.38;;;11.20;98.10;;;;;;5042552;28;20426;-48
2022/04/22 07:51:12;;;;;;;6.75;4.40;;;11.40;97.10;;;;;;5037426;28;20482;-49
2022/04/22 07:53:37;;;;;;;8.75;4.70;;;11.50;97.50;;;;;;5043901;28;20098;-50
2022/04/22 07:56:03;;;;;;;12.20;4.70;;;11.60;97.70;;;;;;5033878;28;20079;-46
2022/04/22 07:58:32;;;;;;;7.30;4.70;;;11.70;96.50;;;;;;5041305;28;20037;-48
2022/04/22 08:00:58;;;;;;;9.05;5.05;;;11.80;95.90;;;;;;5043237;28;20033;-47
2022/04/22 08:03:24;;;;;;;7.53;4.40;;;11.90;95.50;;;;;;5041997;28;20391;-47
2022/04/22 08:05:50;;;;;;;10.52;4.30;;;11.90;96.20;;;;;;5043598;28;20051;-47
2022/04/22 08:08:16;;;;;;;10.45;3.47;;;12.00;95.20;;;;;;5047734;28;20171;-47
2022/04/22 08:10:42;;;;;;;11.65;4.80;;;12.00;94.00;;;;;;5046785;28;20518;-47
2022/04/22 08:13:09;;;;;;;9.05;4.40;;;12.10;94.70;;;;;;5037066;28;20037;-48
2022/04/22 08:15:35;;;;;;;7.93;4.88;;;12.10;94.80;;;;;;5049430;28;20119;-47
2022/04/22 08:18:02;;;;;;;8.00;4.00;;;12.20;95.80;;;;;;5041114;28;20092;-47
2022/04/22 08:20:32;;;;;;;7.32;3.80;;;12.40;94.20;;;;;;5031143;28;20073;-49
2022/04/22 08:22:59;;;;;;;10.40;4.32;;;12.50;94.60;;;;;;5046620;28;20509;-49
2022/04/22 08:25:25;;;;;;;8.43;4.18;;;12.60;93.10;;;;;;5048851;28;20129;-49
2022/04/22 08:27:51;;;;;;;8.52;4.32;;;12.70;93.80;;;;;;5033142;28;20061;-49
2022/04/22 08:30:17;;;;;;;7.50;3.45;;;12.80;93.20;;;;;;5030233;28;20037;-51
2022/04/22 08:32:43;;;;;;;5.20;3.17;;;12.90;91.40;;;;;;5029888;28;20426;-51
2022/04/22 08:35:09;;;;;;;13.18;4.53;;;12.90;90.40;;;;;;5042866;28;20080;-47
2022/04/22 08:37:36;;;;;;;8.27;4.10;;;12.90;91.50;;;;;;5039621;28;20445;-48
2022/04/22 08:40:04;;;;;;;7.50;4.05;;;13.00;92.20;;;;;;5033962;28;20091;-52
2022/04/22 08:42:32;;;;;;;6.70;3.08;;;13.00;91.20;;;;;;5034767;28;20406;-51
2022/04/22 08:44:58;;;;;;;7.75;3.50;;;13.10;90.30;;;;;;5044728;28;20037;-49
2022/04/22 08:50:16;;;;;;;12.02;3.30;;;13.30;89.90;;;;;;5035062;28;20052;-49
2022/04/22 08:52:48;;;;;;;9.52;3.60;;;13.40;90.10;;;;;;5039654;28;20056;-51
2022/04/22 08:55:15;;;;;;;7.07;3.47;;;13.50;88.50;;;;;;5044220;28;20072;-48
2022/04/22 08:57:42;;;;;;;7.85;2.90;;;13.50;86.80;;;;;;5037326;28;20045;-51
2022/04/22 09:00:08;;;;;;;7.18;3.50;;;13.50;87.30;;;;;;5015822;28;20079;-49
2022/04/22 09:02:34;;;;;;;6.15;2.42;;;13.60;84.90;;;;;;5042307;28;20056;-48
2022/04/22 09:05:00;;;;;;;9.70;3.35;;;13.70;82.40;;;;;;5036584;28;20038;-51
2022/04/22 09:07:27;;;;;;;6.82;3.33;;;13.70;84.50;;;;;;5039168;28;20047;-51
2022/04/22 09:09:53;;;;;;;7.00;3.15;;;13.70;85.60;;;;;;5047000;28;20494;-48
2022/04/22 09:12:24;;;;;;;5.65;3.03;;;13.90;84.30;;;;;;5036193;28;20049;-48
2022/04/22 09:14:54;;;;;;;4.63;2.78;;;14.00;82.60;;;;;;5036845;28;20045;-51
2022/04/22 09:17:28;;;;;;;6.00;3.05;;;14.00;80.50;;;;;;5028030;28;20163;-49
2022/04/22 09:19:57;;;;;;;8.10;3.42;;;14.10;79.10;;;;;;5040660;28;20483;-51
2022/04/22 09:22:27;;;;;;;6.72;2.90;;;14.10;81.90;;;;;;5051419;28;20073;-51
2022/04/22 09:24:58;;;;;;;7.78;2.88;;;14.30;80.50;;;;;;5040735;28;20047;-49
2022/04/22 09:27:35;;;;;;;6.95;2.85;;;14.30;79.60;;;;;;5034760;28;20049;-48
2022/04/22 09:30:07;;;;;;;6.95;3.15;;;14.40;78.90;;;;;;5036582;28;20045;-48
2022/04/22 09:32:39;;;;;;;4.97;2.60;;;14.50;79.30;;;;;;5040602;28;20075;-47
2022/04/22 09:35:16;;;;;;;4.40;2.47;;;14.70;76.80;;;;;;5036708;28;20825;-49
2022/04/22 09:43:47;;;;;;;8.55;2.75;;;14.90;73.80;;;;;;5036184;28;20117;-47
2022/04/22 09:46:30;;;;;;;4.53;2.38;;;14.90;74.50;;;;;;5033086;28;20049;-49
2022/04/22 09:48:56;;;;;;;5.45;2.60;;;15.00;74.00;;;;;;5034487;28;20420;-48
2022/04/22 09:51:27;;;;;;;5.95;2.67;;;15.10;70.00;;;;;;5043042;28;20072;-51
2022/04/22 09:54:17;;;;;;;5.05;3.00;;;15.10;70.00;;;;;;5044015;28;20052;-48
2022/04/22 09:56:56;;;;;;;6.97;2.55;;;15.10;70.60;;;;;;5037128;28;20052;-51
2022/04/22 09:59:26;;;;;;;5.18;2.45;;;15.10;71.80;;;;;;5038123;28;20041;-51
2022/04/22 10:01:52;;;;;;;5.47;2.55;;;15.30;71.00;;;;;;5041111;28;20036;-51
2022/04/22 10:04:20;;;;;;;6.18;2.58;;;15.30;69.50;;;;;;5037348;28;20048;-49
2022/04/22 10:06:46;;;;;;;9.05;2.83;;;15.40;66.70;;;;;;5046910;28;20041;-50
2022/04/22 10:09:15;;;;;;;10.32;2.50;;;15.40;69.40;;;;;;5039126;28;20091;-48
2022/04/22 10:11:43;;;;;;;4.28;2.63;;;15.40;70.60;;;;;;5033846;28;20038;-49
2022/04/22 10:14:10;;;;;;;6.72;2.70;;;15.50;68.10;;;;;;5034828;28;20495;-52
2022/04/22 10:16:36;;;;;;;6.55;2.70;;;15.60;66.00;;;;;;5038016;28;20039;-49
2022/04/22 10:19:03;;;;;;;7.20;2.50;;;15.60;65.10;;;;;;5032789;28;20037;-50
2022/04/22 10:21:28;;;;;;;5.63;2.97;;;15.60;66.00;;;;;;5038351;28;20041;-51
2022/04/22 10:23:56;;;;;;;4.35;2.83;;;15.60;65.60;;;;;;5040288;28;20036;-51
2022/04/22 10:26:22;;;;;;;6.13;2.28;;;15.70;64.20;;;;;;5043341;28;20041;-53
2022/04/22 10:28:48;;;;;;;5.20;3.00;;;15.80;64.70;;;;;;5049004;28;20037;-51
2022/04/22 10:31:15;;;;;;;4.82;2.42;;;15.80;67.00;;;;;;5044846;28;20037;-51
2022/04/22 10:33:42;;;;;;;7.65;2.20;;;15.80;65.30;;;;;;5034194;28;20453;-51
2022/04/22 10:36:18;;;;;;;6.38;2.90;;;15.90;62.20;;;;;;5039820;28;20052;-51
2022/04/22 10:38:50;;;;;;;5.70;2.42;;;16.00;62.70;;;;;;5038628;28;20394;-51
2022/04/22 10:41:21;;;;;;;10.13;2.72;;;15.90;62.70;;;;;;5040774;28;20046;-50
2022/04/22 10:49:43;;;;;;;9.20;3.10;;;16.20;62.30;;;;;;5037489;28;20458;-51
2022/04/22 10:52:15;;;;;;;5.63;2.92;;;16.20;62.50;;;;;;5036133;28;20134;-50
2022/04/22 10:54:52;;;;;;;8.67;2.73;;;16.30;62.90;;;;;;5043875;28;20041;-48
2022/04/22 10:57:20;;;;;;;5.75;3.22;;;16.30;59.70;;;;;;5041570;28;20517;-49
2022/04/22 11:00:00;;;;;;;5.72;3.15;;;16.30;62.30;;;;;;5037355;28;20041;-48
2022/04/22 11:02:28;;;;;;;8.85;3.47;;;16.40;62.90;;;;;;5047595;28;20163;-48
2022/04/22 11:07:50;;;;;;;5.68;3.03;;;16.50;63.00;;;;;;5040673;28;20049;-50
2022/04/22 11:10:16;;;;;;;7.77;3.70;;;16.70;60.50;;;;;;5043626;28;20490;-50
2022/04/22 11:12:55;;;;;;;9.38;3.10;;;16.60;62.20;;;;;;5038300;28;20087;-48
2022/04/22 11:15:42;;;;;;;8.48;3.53;;;16.70;61.50;;;;;;5035429;28;20077;-49
2022/04/22 11:18:12;;;;;;;7.35;3.40;;;16.80;62.90;;;;;;5039878;28;20044;-48
2022/04/22 11:20:51;;;;;;;5.20;2.90;;;16.80;63.40;;;;;;5035764;28;20041;-49
2022/04/22 11:23:17;;;;;;;5.10;3.13;;;16.90;61.50;;;;;;5039439;28;20038;-51
2022/04/22 11:25:44;;;;;;;9.52;3.60;;;17.00;62.60;;;;;;5037885;28;20499;-51
2022/04/22 11:28:10;;;;;;;5.35;3.38;;;17.00;61.20;;;;;;5040190;28;20048;-49
2022/04/22 11:30:37;;;;;;;6.43;3.42;;;17.10;62.10;;;;;;5024078;28;20048;-52
2022/04/22 11:33:16;;;;;;;5.70;3.30;;;17.10;61.20;;;;;;5037389;28;20042;-48
2022/04/22 11:35:41;;;;;;;6.32;3.55;;;17.10;60.70;;;;;;5036612;28;20048;-48
2022/04/22 11:38:07;;;;;;;9.43;3.60;;;17.20;60.60;;;;;;5041063;28;20049;-48
2022/04/22 11:40:40;;;;;;;6.75;3.50;;;17.20;60.90;;;;;;5031927;28;20049;-48
2022/04/22 11:43:14;;;;;;;9.77;3.67;;;17.20;61.40;;;;;;5031697;28;20045;-48
2022/04/22 11:45:45;;;;;;;7.28;3.53;;;17.20;61.50;;;;;;5037608;28;20087;-47
2022/04/22 11:48:18;;;;;;;7.10;3.55;;;17.30;60.10;;;;;;5037111;28;20042;-47
2022/04/22 11:50:46;;;;;;;8.98;3.00;;;17.30;59.80;;;;;;5048131;28;20072;-47
2022/04/22 11:53:20;;;;;;;8.48;3.72;;;17.40;56.20;;;;;;5051649;28;20400;-47
2022/04/22 11:55:47;;;;;;;10.57;3.65;;;17.40;56.80;;;;;;5047944;28;20195;-49
2022/04/22 11:58:20;;;;;;;6.97;3.80;;;17.40;58.60;;;;;;5038626;28;20490;-47
2022/04/22 12:06:19;;;;;;;9.30;3.53;;;17.70;58.30;;;;;;5037373;28;20453;-47
2022/04/22 12:09:01;;;;;;;9.10;3.90;;;17.70;59.50;;;;;;5030981;28;20045;-47
2022/04/22 12:11:27;;;;;;;;;;;17.80;58.30;;;;;;5032587;28;20033;-47
2022/04/22 12:13:54;;;;;;;6.95;4.07;;;17.80;58.90;;;;;;5041258;28;20407;-49
2022/04/22 12:16:25;;;;;;;8.20;3.88;;;17.90;57.60;;;;;;5040052;28;20479;-50
2022/04/22 12:18:53;;;;;;;9.80;4.40;;;17.90;57.60;;;;;;5029922;28;20410;-47
2022/04/22 12:21:20;;;;;;;11.25;4.53;;;17.90;57.70;;;;;;5034696;28;20048;-48
2022/04/22 12:23:50;;;;;;;8.15;4.35;;;17.90;57.30;;;;;;5042727;28;20049;-48
2022/04/22 12:26:20;;;;;;;6.82;4.25;;;17.90;56.90;;;;;;5031449;28;20092;-48
2022/04/22 12:28:56;;;;;;;7.57;4.30;;;17.90;57.80;;;;;;5034605;28;20045;-47
2022/04/22 12:31:23;;;;;;;8.35;4.10;;;17.90;58.20;;;;;;5034797;28;20052;-52
2022/04/22 12:34:01;;;;;;;10.85;4.78;;;17.80;58.30;;;;;;5029047;28;20447;-48
2022/04/22 12:36:27;;;;;;;12.77;4.80;;;17.80;58.60;;;;;;5060845;22;20136;-51
2022/04/22 12:38:53;;;;;;;9.82;4.30;;;17.80;58.00;;;;;;5043925;28;20044;-54
2022/04/22 12:41:25;;;;;;;10.93;4.90;;;17.70;57.40;;;;;;5046248;28;20033;-54
2022/04/22 12:43:55;;;;;;;8.05;4.72;;;17.60;57.40;;;;;;5042576;28;20041;-54
2022/04/22 12:52:08;;;;;;;8.68;4.85;;;17.70;58.20;;;;;;5027441;28;20127;-53
2022/04/22 12:54:33;;;;;;;8.98;5.20;;;17.70;59.10;;;;;;5025972;28;20045;-54
2022/04/22 12:56:59;;;;;;;12.30;5.07;;;17.80;59.00;;;;;;5023620;28;20043;-54
2022/04/22 12:59:43;;;;;;;7.30;4.68;;;17.70;58.80;;;;;;5026926;28;20185;-51
2022/04/22 13:02:09;;;;;;;9.23;4.88;;;17.80;58.40;;;;;;5027412;28;20440;-53
2022/04/22 13:05:09;;;;;;;9.18;5.47;;;17.80;58.80;;;;;;5016630;28;20080;-54
2022/04/22 13:07:42;;;;;;;9.45;5.07;;;18.00;57.90;;;;;;5010695;28;20514;-51
2022/04/22 13:10:14;;;;;;;8.18;4.97;;;18.10;57.80;;;;;;5034596;28;20034;-55
2022/04/22 13:12:44;;;;;;;9.63;5.22;;;18.10;57.40;;;;;;5040289;28;20426;-51
2022/04/22 13:15:13;;;;;;;9.68;5.60;;;18.10;58.00;;;;;;5023024;28;20411;-50
2022/04/22 13:17:40;;;;;;;7.68;5.10;;;17.90;57.80;;;;;;5031724;28;20041;-50
2022/04/22 13:20:07;;;;;;;9.13;5.10;;;17.90;57.40;;;;;;5029213;28;20038;-50
2022/04/22 13:22:34;;;;;;;11.25;5.78;;;17.80;57.90;;;;;;5033354;28;20502;-50
2022/04/22 13:24:59;;;;;;;12.63;5.68;;;17.70;58.20;;;;;;5029309;28;20072;-50
2022/04/22 13:27:25;;;;;;;11.95;5.65;;;17.60;58.30;;;;;;5026248;28;20440;-49
2022/04/22 13:29:50;;;;;;;9.65;5.63;;;17.50;58.90;;;;;;5031391;28;20033;-50
2022/04/22 13:32:16;;;;;;;11.57;5.90;;;17.40;59.70;;;;;;5030750;28;20041;-52
2022/04/22 13:34:41;;;;;;;11.07;5.47;;;17.40;60.30;;;;;;5029355;28;20041;-49
2022/04/22 13:37:07;;;;;;;10.23;6.00;;;17.40;59.60;;;;;;5031473;28;20449;-49
2022/04/22 13:39:33;;;;;;;9.75;6.07;;;17.30;59.50;;;;;;5033994;28;20035;-51
2022/04/22 13:41:59;;;;;;;11.88;6.28;;;17.20;60.60;;;;;;5024032;28;20160;-51
2022/04/22 13:52:38;;;;;;;7.68;5.88;;;17.10;59.20;;;;;;5032324;28;20071;-52
2022/04/22 13:55:04;;;;;;;12.55;6.07;;;17.20;59.60;;;;;;5024121;28;20543;-49
2022/04/22 13:57:29;;;;;;;10.10;6.40;;;17.20;59.90;;;;;;5037322;28;20418;-50
2022/04/22 13:59:55;;;;;;;10.52;5.78;;;17.30;60.30;;;;;;5031723;28;20039;-49